Time;durP1;ratioP1;P1;durP2;ratioP2;P2;SDS_P1;SDS_P2;PMS_P1;PMS_P2;Temp;Humidity;BMP_temperature;BMP_pressure;BME280_temperature;BME280_humidity;BME280_pressure;Samples;Min_cycle;Max_cycle;Signal;HPM_P1;HPM_P2
2021/11/22 00:02:03;;;;;;;45.72;17.33;;;;;;;;;;5000699;28;20022;-55
2021/11/22 00:04:28;;;;;;;39.33;16.33;;;;;;;;;;5002508;28;20042;-55
2021/11/22 00:06:54;;;;;;;44.72;16.65;;;;;;;;;;5001970;28;20026;-56
2021/11/22 00:09:19;;;;;;;39.55;16.33;;;;;;;;;;5003013;28;20116;-59
2021/11/22 00:11:45;;;;;;;36.85;16.25;;;;;;;;;;5002237;28;20033;-58
2021/11/22 00:14:11;;;;;;;41.22;17.15;;;;;;;;;;4998533;28;20052;-58
2021/11/22 00:16:36;;;;;;;40.67;16.60;;;;;;;;;;5003600;28;20468;-57
2021/11/22 00:19:03;;;;;;;41.05;17.15;;;;;;;;;;5001149;28;20109;-58
2021/11/22 00:21:28;;;;;;;40.88;16.38;;;;;;;;;;5004449;28;20145;-57
2021/11/22 00:23:54;;;;;;;46.47;19.13;;;;;;;;;;5002558;28;20578;-58
2021/11/22 00:26:19;;;;;;;43.55;18.38;;;;;;;;;;5002261;28;20512;-58
2021/11/22 00:28:45;;;;;;;43.97;18.08;;;;;;;;;;5001302;28;20108;-57
2021/11/22 00:31:10;;;;;;;43.70;18.40;;;;;;;;;;4998879;28;20057;-56
2021/11/22 00:33:36;;;;;;;44.90;17.60;;;;;;;;;;5003646;28;20489;-56
2021/11/22 00:36:01;;;;;;;42.28;16.85;;;;;;;;;;5002430;28;20408;-56
2021/11/22 00:38:27;;;;;;;36.63;17.27;;;;;;;;;;5004590;28;20021;-60
2021/11/22 00:40:54;;;;;;;41.70;17.67;;;;;;;;;;4999898;28;20041;-59
2021/11/22 00:43:20;;;;;;;46.08;17.20;;;;;;;;;;5000939;28;20038;-56
2021/11/22 00:45:49;;;;;;;43.15;17.13;;;;;;;;;;5001996;28;20034;-57
2021/11/22 00:48:15;;;;;;;41.55;17.13;;;;;;;;;;4999868;28;20034;-57
2021/11/22 00:50:40;;;;;;;42.05;17.77;;;;;;;;;;5004550;28;20076;-56
2021/11/22 00:53:06;;;;;;;39.53;16.40;;;;;;;;;;5005490;28;20438;-56
2021/11/22 00:55:31;;;;;;;45.17;17.15;;;;;;;;;;5001224;28;20043;-57
2021/11/22 00:57:57;;;;;;;38.53;16.38;;;;;;;;;;5005212;28;20377;-56
2021/11/22 01:00:22;;;;;;;46.00;17.40;;;;;;;;;;5006892;28;20033;-55
2021/11/22 01:02:48;;;;;;;44.30;17.85;;;;;;;;;;5004869;28;20523;-56
2021/11/22 01:05:14;;;;;;;40.22;16.77;;;;;;;;;;5005408;28;20403;-56
2021/11/22 01:07:39;;;;;;;40.83;17.83;;;;;;;;;;5005070;28;20489;-57
2021/11/22 01:10:07;;;;;;;42.75;16.90;;;;;;;;;;5005053;28;20034;-56
2021/11/22 01:12:33;;;;;;;40.05;16.42;;;;;;;;;;4999455;28;20472;-56
2021/11/22 01:15:00;;;;;;;39.92;15.95;;;;;;;;;;5004965;28;20096;-55
2021/11/22 01:17:26;;;;;;;38.67;16.90;;;;;;;;;;5005108;28;20174;-57
2021/11/22 01:19:53;;;;;;;41.00;16.48;;;;;;;;;;5003594;28;20034;-55
2021/11/22 01:22:23;;;;;;;40.83;15.88;;;;;;;;;;5004681;28;20045;-56
2021/11/22 01:24:49;;;;;;;41.83;16.50;;;;;;;;;;5004753;28;20025;-55
2021/11/22 01:27:15;;;;;;;38.03;16.30;;;;;;;;;;5002056;28;21291;-55
2021/11/22 01:29:41;;;;;;;40.90;16.45;;;;;;;;;;5002573;28;20029;-56
2021/11/22 01:32:06;;;;;;;39.70;15.90;;;;;;;;;;5007115;28;20025;-57
2021/11/22 01:34:32;;;;;;;39.30;15.35;;;;;;;;;;5006787;28;20029;-56
2021/11/22 01:36:57;;;;;;;36.13;15.73;;;;;;;;;;5008126;28;20038;-55
2021/11/22 01:39:23;;;;;;;35.38;15.30;;;;;;;;;;5001106;28;20076;-55
2021/11/22 01:41:48;;;;;;;41.05;16.15;;;;;;;;;;5003245;28;20049;-56
2021/11/22 01:44:14;;;;;;;39.00;15.52;;;;;;;;;;5003734;28;20036;-57
2021/11/22 01:46:40;;;;;;;39.17;15.45;;;;;;;;;;5005803;28;20112;-56
2021/11/22 01:49:06;;;;;;;35.17;14.40;;;;;;;;;;4998626;28;20065;-56
2021/11/22 01:51:31;;;;;;;34.55;14.63;;;;;;;;;;5003275;28;20380;-56
2021/11/22 01:53:58;;;;;;;41.65;17.00;;;;;;;;;;5006472;28;20026;-58
2021/11/22 01:56:25;;;;;;;36.10;15.40;;;;;;;;;;5005225;28;20485;-58
2021/11/22 01:58:50;;;;;;;35.35;15.60;;;;;;;;;;5006189;28;20085;-57
2021/11/22 02:01:17;;;;;;;36.28;15.07;;;;;;;;;;5006084;28;20038;-59
2021/11/22 02:03:43;;;;;;;37.25;15.77;;;;;;;;;;5001652;28;20041;-57
2021/11/22 02:06:08;;;;;;;44.25;17.10;;;;;;;;;;5006918;28;20026;-58
2021/11/22 02:08:34;;;;;;;36.97;14.63;;;;;;;;;;4999127;28;20101;-57
2021/11/22 02:10:59;;;;;;;36.03;15.40;;;;;;;;;;5001312;28;20056;-57
2021/11/22 02:13:25;;;;;;;41.33;16.00;;;;;;;;;;5005397;28;20033;-58
2021/11/22 02:15:51;;;;;;;38.72;15.35;;;;;;;;;;5006448;28;20045;-56
2021/11/22 02:18:18;;;;;;;39.83;16.35;;;;;;;;;;5001180;28;20139;-56
2021/11/22 02:20:44;;;;;;;39.25;15.65;;;;;;;;;;5006151;28;20452;-58
2021/11/22 02:23:11;;;;;;;42.00;16.42;;;;;;;;;;5003254;28;20026;-57
2021/11/22 02:25:40;;;;;;;37.35;14.82;;;;;;;;;;5004174;28;20045;-58
2021/11/22 02:28:06;;;;;;;42.63;16.90;;;;;;;;;;5001326;28;20030;-56
2021/11/22 02:30:37;;;;;;;39.13;16.60;;;;;;;;;;5003969;28;20102;-56
2021/11/22 02:33:07;;;;;;;39.30;15.15;;;;;;;;;;5002266;28;20025;-56
2021/11/22 02:35:36;;;;;;;42.78;17.08;;;;;;;;;;5003299;28;20096;-57
2021/11/22 02:38:01;;;;;;;42.55;15.93;;;;;;;;;;5003515;28;20030;-57
2021/11/22 02:40:27;;;;;;;39.90;16.10;;;;;;;;;;5003812;28;20030;-57
2021/11/22 02:42:52;;;;;;;34.20;14.93;;;;;;;;;;5000723;28;20030;-56
2021/11/22 02:45:20;;;;;;;37.53;15.57;;;;;;;;;;5001632;28;20037;-57
2021/11/22 02:47:47;;;;;;;38.05;15.38;;;;;;;;;;5004512;28;20109;-57
2021/11/22 02:50:14;;;;;;;39.15;15.05;;;;;;;;;;4998989;28;20132;-56
2021/11/22 02:52:41;;;;;;;35.08;14.88;;;;;;;;;;4999474;28;20025;-56
2021/11/22 02:55:09;;;;;;;42.05;14.93;;;;;;;;;;5006704;28;20682;-55
2021/11/22 02:57:34;;;;;;;39.10;15.35;;;;;;;;;;5003649;28;20041;-57
2021/11/22 03:00:00;;;;;;;37.53;15.32;;;;;;;;;;5003252;28;20022;-57
2021/11/22 03:02:25;;;;;;;39.42;16.27;;;;;;;;;;5002401;28;20053;-57
2021/11/22 03:04:52;;;;;;;40.40;16.10;;;;;;;;;;5006496;28;20476;-57
2021/11/22 03:07:19;;;;;;;41.00;17.20;;;;;;;;;;5004812;28;20042;-58
2021/11/22 03:09:45;;;;;;;36.55;15.70;;;;;;;;;;5003218;28;20106;-56
2021/11/22 03:12:12;;;;;;;40.25;15.50;;;;;;;;;;5006553;28;20503;-55
2021/11/22 03:14:38;;;;;;;37.88;15.43;;;;;;;;;;5000755;28;20041;-57
2021/11/22 03:17:04;;;;;;;39.13;15.23;;;;;;;;;;5005217;28;20518;-56
2021/11/22 03:19:30;;;;;;;35.85;15.65;;;;;;;;;;4997926;28;20034;-56
2021/11/22 03:21:58;;;;;;;42.67;17.95;;;;;;;;;;5003568;28;21483;-56
2021/11/22 03:24:24;;;;;;;39.58;14.52;;;;;;;;;;5003585;28;20026;-55
2021/11/22 03:26:49;;;;;;;37.72;15.48;;;;;;;;;;5002989;28;20026;-57
2021/11/22 03:29:15;;;;;;;35.55;15.27;;;;;;;;;;5002982;28;20385;-56
2021/11/22 03:31:41;;;;;;;36.60;15.52;;;;;;;;;;4998010;28;20033;-55
2021/11/22 03:34:09;;;;;;;34.28;13.80;;;;;;;;;;5000269;28;20022;-57
2021/11/22 03:36:35;;;;;;;37.13;14.90;;;;;;;;;;5000614;28;20385;-56
2021/11/22 03:39:05;;;;;;;35.03;14.43;;;;;;;;;;5004237;28;20036;-55
2021/11/22 03:41:32;;;;;;;38.05;14.73;;;;;;;;;;5006406;28;20028;-57
2021/11/22 03:43:59;;;;;;;39.05;15.25;;;;;;;;;;5001451;28;20030;-57
2021/11/22 03:46:26;;;;;;;35.78;14.63;;;;;;;;;;5002657;28;20109;-57
2021/11/22 03:48:52;;;;;;;35.28;15.32;;;;;;;;;;5004299;28;20111;-56
2021/11/22 03:51:18;;;;;;;39.30;15.07;;;;;;;;;;5004853;28;20171;-59
2021/11/22 03:53:44;;;;;;;39.55;15.38;;;;;;;;;;5006046;28;20032;-55
2021/11/22 03:56:10;;;;;;;44.58;16.55;;;;;;;;;;5004988;28;20030;-55
2021/11/22 03:58:36;;;;;;;44.20;16.13;;;;;;;;;;5000646;28;20046;-56
2021/11/22 04:01:03;;;;;;;34.55;13.82;;;;;;;;;;5004126;28;20034;-56
2021/11/22 04:03:29;;;;;;;38.88;15.25;;;;;;;;;;5002585;28;20033;-56
2021/11/22 04:05:54;;;;;;;37.58;15.05;;;;;;;;;;5003638;28;20026;-56
2021/11/22 04:08:20;;;;;;;41.65;14.98;;;;;;;;;;4996476;28;20511;-57
2021/11/22 04:10:45;;;;;;;40.88;15.30;;;;;;;;;;4999755;28;20038;-56
2021/11/22 04:13:11;;;;;;;39.72;14.85;;;;;;;;;;5003751;28;20076;-56
2021/11/22 04:15:38;;;;;;;40.40;15.60;;;;;;;;;;5002705;28;20025;-57
2021/11/22 04:18:04;;;;;;;42.10;16.77;;;;;;;;;;5002730;28;20048;-56
2021/11/22 04:20:30;;;;;;;40.05;15.13;;;;;;;;;;5001704;28;20041;-55
2021/11/22 04:22:56;;;;;;;36.53;14.50;;;;;;;;;;5001845;28;20045;-55
2021/11/22 04:25:22;;;;;;;34.90;13.50;;;;;;;;;;5002772;28;20029;-55
2021/11/22 04:27:48;;;;;;;36.95;14.82;;;;;;;;;;4996399;28;20049;-56
2021/11/22 04:30:15;;;;;;;38.75;14.73;;;;;;;;;;4999998;28;20184;-56
2021/11/22 04:32:40;;;;;;;45.40;17.83;;;;;;;;;;4997689;28;20022;-55
2021/11/22 04:35:08;;;;;;;46.90;17.08;;;;;;;;;;5003622;28;20026;-55
2021/11/22 04:37:35;;;;;;;40.22;15.35;;;;;;;;;;5001586;28;20031;-56
2021/11/22 04:40:02;;;;;;;38.63;15.27;;;;;;;;;;4996712;28;20070;-56
2021/11/22 04:42:28;;;;;;;40.30;15.20;;;;;;;;;;5000362;28;20026;-55
2021/11/22 04:44:53;;;;;;;36.13;14.55;;;;;;;;;;5001751;28;20030;-56
2021/11/22 04:47:20;;;;;;;40.55;15.18;;;;;;;;;;5003734;28;20030;-57
2021/11/22 04:49:49;;;;;;;38.92;14.65;;;;;;;;;;5002009;28;20041;-56
2021/11/22 04:52:16;;;;;;;38.28;14.65;;;;;;;;;;5001276;28;20036;-54
2021/11/22 04:54:42;;;;;;;43.03;14.85;;;;;;;;;;5000568;28;20045;-55
2021/11/22 04:57:08;;;;;;;39.95;14.98;;;;;;;;;;5002560;28;20419;-56
2021/11/22 04:59:35;;;;;;;41.10;15.63;;;;;;;;;;4997974;28;20019;-56
2021/11/22 05:02:01;;;;;;;40.65;14.25;;;;;;;;;;4997501;28;20049;-61
2021/11/22 05:04:26;;;;;;;40.92;14.50;;;;;;;;;;5000743;28;20048;-57
2021/11/22 05:06:52;;;;;;;42.05;15.73;;;;;;;;;;5000930;28;20512;-57
2021/11/22 05:09:19;;;;;;;34.63;13.73;;;;;;;;;;4998158;28;20026;-58
2021/11/22 05:11:45;;;;;;;37.30;14.77;;;;;;;;;;5003977;28;20025;-56
2021/11/22 05:14:11;;;;;;;36.53;14.10;;;;;;;;;;5003649;28;20080;-58
2021/11/22 05:16:37;;;;;;;36.78;13.75;;;;;;;;;;5000724;28;20419;-57
2021/11/22 05:19:03;;;;;;;36.00;14.10;;;;;;;;;;4996503;28;20511;-58
2021/11/22 05:21:31;;;;;;;43.45;14.38;;;;;;;;;;5002735;28;20063;-57
2021/11/22 05:23:56;;;;;;;38.35;13.68;;;;;;;;;;5000809;28;20029;-57
2021/11/22 05:26:22;;;;;;;38.72;14.98;;;;;;;;;;4998483;28;20491;-58
2021/11/22 05:28:48;;;;;;;39.40;14.45;;;;;;;;;;5000610;28;20030;-58
2021/11/22 05:31:13;;;;;;;35.78;15.00;;;;;;;;;;5004212;28;20080;-58
2021/11/22 05:33:39;;;;;;;40.22;15.20;;;;;;;;;;5000473;28;20022;-58
2021/11/22 05:36:04;;;;;;;37.80;14.85;;;;;;;;;;4996368;28;20028;-57
2021/11/22 05:38:30;;;;;;;38.45;15.27;;;;;;;;;;4996564;28;20053;-57
2021/11/22 05:40:55;;;;;;;42.85;15.85;;;;;;;;;;5007789;28;20049;-57
2021/11/22 05:43:21;;;;;;;35.35;14.02;;;;;;;;;;5001863;28;20030;-58
2021/11/22 05:45:47;;;;;;;37.67;15.52;;;;;;;;;;4998767;28;20092;-58
2021/11/22 05:48:12;;;;;;;40.75;15.50;;;;;;;;;;5005582;28;20500;-56
2021/11/22 05:50:38;;;;;;;37.20;16.00;;;;;;;;;;5007380;28;20116;-57
2021/11/22 05:53:06;;;;;;;40.45;15.85;;;;;;;;;;5004369;28;20037;-56
2021/11/22 05:55:38;;;;;;;42.10;16.25;;;;;;;;;;5008428;28;20117;-56
2021/11/22 05:58:06;;;;;;;45.60;17.13;;;;;;;;;;5003835;28;20048;-57
2021/11/22 06:00:33;;;;;;;42.92;16.48;;;;;;;;;;5001382;28;20511;-57
2021/11/22 06:02:59;;;;;;;44.72;17.00;;;;;;;;;;5005688;28;20113;-57
2021/11/22 06:05:24;;;;;;;47.22;17.50;;;;;;;;;;5002277;28;20547;-58
2021/11/22 06:07:50;;;;;;;46.28;17.83;;;;;;;;;;5002176;28;20527;-56
2021/11/22 06:10:15;;;;;;;42.00;16.73;;;;;;;;;;5006433;28;20036;-59
2021/11/22 06:12:41;;;;;;;40.40;16.80;;;;;;;;;;5006556;28;20049;-59
2021/11/22 06:15:08;;;;;;;41.78;16.58;;;;;;;;;;5004865;28;20104;-58
2021/11/22 06:17:33;;;;;;;40.17;17.27;;;;;;;;;;5001709;28;20030;-59
2021/11/22 06:19:59;;;;;;;35.08;15.30;;;;;;;;;;5005602;28;20110;-59
2021/11/22 06:22:24;;;;;;;37.03;16.30;;;;;;;;;;5010563;28;20548;-60
2021/11/22 06:24:50;;;;;;;40.67;14.77;;;;;;;;;;5007327;28;20033;-60
2021/11/22 06:27:16;;;;;;;38.80;15.10;;;;;;;;;;5002641;28;20403;-59
2021/11/22 06:29:42;;;;;;;38.17;15.70;;;;;;;;;;4999799;28;20038;-59
2021/11/22 06:32:10;;;;;;;43.17;15.57;;;;;;;;;;4999654;28;20080;-59
2021/11/22 06:34:37;;;;;;;32.50;13.13;;;;;;;;;;5006955;28;20029;-59
2021/11/22 06:37:02;;;;;;;41.22;16.50;;;;;;;;;;5004373;28;20877;-59
2021/11/22 06:39:28;;;;;;;40.22;14.95;;;;;;;;;;5004109;28;20108;-60
2021/11/22 06:41:53;;;;;;;43.15;16.02;;;;;;;;;;5000792;28;20033;-59
2021/11/22 06:44:21;;;;;;;39.95;15.90;;;;;;;;;;5000356;28;20394;-63
2021/11/22 06:46:48;;;;;;;43.97;15.77;;;;;;;;;;5002581;28;20534;-59
2021/11/22 06:49:19;;;;;;;44.28;16.67;;;;;;;;;;4999697;28;20297;-59
2021/11/22 06:51:45;;;;;;;45.60;19.52;;;;;;;;;;5005015;28;20438;-59
2021/11/22 06:54:11;;;;;;;57.13;24.05;;;;;;;;;;5005604;28;20026;-59
2021/11/22 06:56:36;;;;;;;52.53;21.05;;;;;;;;;;5000455;28;20080;-58
2021/11/22 06:59:02;;;;;;;31.13;11.77;;;;;;;;;;5001951;28;20171;-58
2021/11/22 07:01:29;;;;;;;37.95;15.43;;;;;;;;;;5001619;28;20037;-59
2021/11/22 07:03:54;;;;;;;41.42;16.52;;;;;;;;;;5002477;28;20036;-59
2021/11/22 07:06:20;;;;;;;46.33;18.45;;;;;;;;;;5003599;28;20033;-59
2021/11/22 07:08:45;;;;;;;43.45;17.52;;;;;;;;;;5005824;28;20029;-58
2021/11/22 07:11:10;;;;;;;40.35;16.17;;;;;;;;;;5002684;28;20500;-58
2021/11/22 07:13:38;;;;;;;37.85;15.52;;;;;;;;;;5003843;28;20026;-59
2021/11/22 07:16:04;;;;;;;41.25;16.55;;;;;;;;;;5003155;28;20168;-59
2021/11/22 07:18:29;;;;;;;41.92;16.02;;;;;;;;;;4999086;28;20030;-59
2021/11/22 07:20:55;;;;;;;40.40;16.05;;;;;;;;;;5004258;28;20025;-59
2021/11/22 07:23:22;;;;;;;43.60;17.55;;;;;;;;;;5003555;28;20038;-59
2021/11/22 07:25:49;;;;;;;44.22;17.70;;;;;;;;;;5002730;28;20365;-59
2021/11/22 07:28:14;;;;;;;41.03;16.83;;;;;;;;;;5004860;28;20034;-58
2021/11/22 07:30:40;;;;;;;41.95;16.58;;;;;;;;;;4999038;28;20032;-57
2021/11/22 07:33:06;;;;;;;41.83;15.43;;;;;;;;;;5004825;28;20032;-59
2021/11/22 07:35:31;;;;;;;43.13;18.65;;;;;;;;;;5003749;28;20025;-59
2021/11/22 07:37:57;;;;;;;49.13;17.98;;;;;;;;;;5005748;28;20692;-59
2021/11/22 07:40:23;;;;;;;51.97;18.80;;;;;;;;;;5001156;28;20125;-59
2021/11/22 07:42:52;;;;;;;53.67;20.10;;;;;;;;;;5006508;28;20084;-58
2021/11/22 07:45:19;;;;;;;56.90;21.75;;;;;;;;;;5000748;28;20037;-59
2021/11/22 07:47:45;;;;;;;52.25;19.05;;;;;;;;;;4996991;28;20440;-58
2021/11/22 07:50:10;;;;;;;45.47;16.85;;;;;;;;;;4999137;28;20030;-57
2021/11/22 07:52:36;;;;;;;41.65;16.00;;;;;;;;;;4999721;28;20079;-60
2021/11/22 07:55:02;;;;;;;40.00;16.85;;;;;;;;;;4997922;28;20118;-59
2021/11/22 07:57:28;;;;;;;41.10;16.83;;;;;;;;;;5001040;28;20493;-59
2021/11/22 07:59:54;;;;;;;39.95;15.10;;;;;;;;;;5000138;28;20244;-59
2021/11/22 08:02:19;;;;;;;36.38;16.35;;;;;;;;;;4999771;28;20559;-59
2021/11/22 08:04:45;;;;;;;40.47;15.82;;;;;;;;;;5003354;28;20112;-59
2021/11/22 08:07:17;;;;;;;43.22;17.33;;;;;;;;;;5003284;28;20028;-57
2021/11/22 08:09:54;;;;;;;56.60;23.80;;;;;;;;;;5001234;28;20030;-58
2021/11/22 08:12:26;;;;;;;55.65;20.30;;;;;;;;;;4997240;28;20192;-59
2021/11/22 08:15:01;;;;;;;45.15;16.73;;;;;;;;;;4998267;28;20061;-59
2021/11/22 08:17:29;;;;;;;45.47;18.77;;;;;;;;;;5002084;28;20105;-59
2021/11/22 08:19:56;;;;;;;44.47;18.90;;;;;;;;;;4998489;28;20389;-59
2021/11/22 08:22:23;;;;;;;38.90;15.77;;;;;;;;;;5001719;28;20168;-58
2021/11/22 08:24:53;;;;;;;39.42;16.15;;;;;;;;;;5001771;28;20033;-58
2021/11/22 08:27:24;;;;;;;41.17;18.85;;;;;;;;;;4997083;28;20443;-59
2021/11/22 08:29:51;;;;;;;44.40;18.20;;;;;;;;;;5000587;28;20041;-58
2021/11/22 08:32:18;;;;;;;40.88;17.95;;;;;;;;;;5002731;28;20034;-58
2021/11/22 08:34:44;;;;;;;38.60;14.80;;;;;;;;;;5000180;28;20034;-59
2021/11/22 08:37:10;;;;;;;34.65;13.65;;;;;;;;;;5000265;28;20623;-57
2021/11/22 08:39:36;;;;;;;35.30;13.65;;;;;;;;;;4996639;28;20400;-58
2021/11/22 08:42:02;;;;;;;35.65;14.45;;;;;;;;;;5002971;28;20029;-58
2021/11/22 08:44:30;;;;;;;37.17;14.15;;;;;;;;;;4999432;28;20025;-58
2021/11/22 08:46:55;;;;;;;33.03;12.43;;;;;;;;;;4999172;28;20022;-58
2021/11/22 08:49:21;;;;;;;39.47;15.80;;;;;;;;;;5000604;28;20096;-59
2021/11/22 08:51:47;;;;;;;35.65;13.90;;;;;;;;;;5001880;28;20026;-58
2021/11/22 08:54:13;;;;;;;30.02;12.23;;;;;;;;;;4999709;28;20034;-57
2021/11/22 08:56:38;;;;;;;35.25;12.95;;;;;;;;;;5002111;28;20026;-57
2021/11/22 08:59:04;;;;;;;38.70;12.90;;;;;;;;;;5002366;28;20034;-57
2021/11/22 09:01:30;;;;;;;30.30;11.63;;;;;;;;;;4999449;28;20072;-58
2021/11/22 09:03:57;;;;;;;35.95;12.57;;;;;;;;;;4997431;28;20091;-58
2021/11/22 09:06:22;;;;;;;31.73;12.40;;;;;;;;;;5002527;28;20425;-58
2021/11/22 09:08:48;;;;;;;39.08;13.70;;;;;;;;;;4998290;28;20037;-58
2021/11/22 09:11:15;;;;;;;37.85;15.27;;;;;;;;;;4998823;28;20061;-58
2021/11/22 09:13:42;;;;;;;39.72;15.00;;;;;;;;;;5002039;28;20488;-60
2021/11/22 09:16:08;;;;;;;45.72;17.77;;;;;;;;;;5004616;28;20092;-57
2021/11/22 09:18:34;;;;;;;42.92;16.15;;;;;;;;;;5003869;28;20485;-59
2021/11/22 09:21:00;;;;;;;46.17;15.57;;;;;;;;;;5006660;28;20399;-58
2021/11/22 09:23:26;;;;;;;37.42;14.80;;;;;;;;;;5000405;28;20034;-58
2021/11/22 09:25:52;;;;;;;42.53;15.57;;;;;;;;;;5003972;28;20310;-58
2021/11/22 09:28:18;;;;;;;43.78;16.77;;;;;;;;;;5003771;28;20052;-58
2021/11/22 09:30:44;;;;;;;41.58;15.40;;;;;;;;;;5003730;28;20022;-58
2021/11/22 09:33:11;;;;;;;41.28;16.13;;;;;;;;;;5003946;28;20079;-58
2021/11/22 09:35:38;;;;;;;45.83;18.33;;;;;;;;;;5006014;28;20040;-58
2021/11/22 09:38:03;;;;;;;53.78;21.63;;;;;;;;;;5005935;28;20380;-58
2021/11/22 09:40:29;;;;;;;56.72;21.73;;;;;;;;;;5000084;28;20037;-58
2021/11/22 09:42:56;;;;;;;70.63;27.42;;;;;;;;;;5000938;28;20026;-58
2021/11/22 09:45:26;;;;;;;50.95;21.33;;;;;;;;;;5004509;28;20032;-59
2021/11/22 09:47:56;;;;;;;56.55;21.02;;;;;;;;;;5006845;28;20030;-59
2021/11/22 09:50:22;;;;;;;65.35;24.02;;;;;;;;;;5002950;28;20485;-58
2021/11/22 09:52:47;;;;;;;77.32;24.80;;;;;;;;;;5003331;28;20044;-58
2021/11/22 09:55:13;;;;;;;65.65;24.90;;;;;;;;;;5005836;28;20485;-58
2021/11/22 09:57:39;;;;;;;63.38;23.00;;;;;;;;;;5006968;28;20313;-59
2021/11/22 10:00:07;;;;;;;65.00;22.52;;;;;;;;;;5001438;28;20124;-58
2021/11/22 10:02:48;;;;;;;57.17;22.00;;;;;;;;;;5003325;28;20030;-58
2021/11/22 10:05:17;;;;;;;54.03;21.30;;;;;;;;;;5006156;28;20404;-59
2021/11/22 10:07:42;;;;;;;46.67;19.88;;;;;;;;;;5005794;28;20046;-58
2021/11/22 10:10:13;;;;;;;50.85;20.88;;;;;;;;;;5006533;28;20052;-59
2021/11/22 10:12:41;;;;;;;50.60;19.38;;;;;;;;;;5002846;28;20400;-58
2021/11/22 10:15:06;;;;;;;38.85;16.60;;;;;;;;;;5004872;28;20033;-59
2021/11/22 10:17:39;;;;;;;41.47;14.90;;;;;;;;;;5005393;28;20021;-59
2021/11/22 10:20:16;;;;;;;41.42;17.02;;;;;;;;;;5000743;28;20028;-59
2021/11/22 10:22:47;;;;;;;43.72;17.33;;;;;;;;;;5007232;28;20036;-58
2021/11/22 10:25:21;;;;;;;39.38;16.88;;;;;;;;;;5004821;28;20021;-57
2021/11/22 10:27:46;;;;;;;41.00;16.55;;;;;;;;;;5000380;28;20466;-58
2021/11/22 10:30:25;;;;;;;37.60;14.52;;;;;;;;;;5000754;28;20045;-57
2021/11/22 10:32:54;;;;;;;42.15;15.38;;;;;;;;;;4998096;28;20077;-58
2021/11/22 10:35:20;;;;;;;46.90;17.15;;;;;;;;;;5004747;28;20419;-59
2021/11/22 10:38:00;;;;;;;47.85;18.73;;;;;;;;;;5005748;28;20053;-58
2021/11/22 10:40:28;;;;;;;38.63;15.52;;;;;;;;;;4993579;28;20148;-59
2021/11/22 10:42:56;;;;;;;28.77;12.82;;;;;;;;;;5008809;28;20041;-59
2021/11/22 10:45:25;;;;;;;29.15;12.85;;;;;;;;;;5006216;28;20452;-59
2021/11/22 10:48:13;;;;;;;28.08;12.52;;;;;;;;;;5001163;28;20026;-59
2021/11/22 10:50:47;;;;;;;28.75;11.50;;;;;;;;;;5002947;28;20452;-58
2021/11/22 10:53:13;;;;;;;30.10;12.38;;;;;;;;;;5006990;28;20109;-58
2021/11/22 10:55:47;;;;;;;28.58;12.20;;;;;;;;;;5003404;28;20124;-58
2021/11/22 10:58:33;;;;;;;28.52;12.35;;;;;;;;;;4998660;28;20025;-59
2021/11/22 11:01:22;;;;;;;27.45;12.15;;;;;;;;;;5000004;28;20474;-59
2021/11/22 11:03:49;;;;;;;24.90;12.32;;;;;;;;;;4998971;28;20049;-59
2021/11/22 11:06:14;;;;;;;26.63;12.27;;;;;;;;;;5006993;28;20022;-59
2021/11/22 11:08:41;;;;;;;26.05;12.57;;;;;;;;;;5001694;28;20025;-59
2021/11/22 11:11:12;;;;;;;29.10;13.50;;;;;;;;;;5002208;28;20068;-59
2021/11/22 11:13:49;;;;;;;28.42;12.18;;;;;;;;;;5001853;28;20074;-59
2021/11/22 11:16:15;;;;;;;29.05;12.30;;;;;;;;;;4999506;28;20042;-58
2021/11/22 11:18:55;;;;;;;28.20;12.85;;;;;;;;;;5005207;28;20041;-59
2021/11/22 11:21:25;;;;;;;31.23;12.65;;;;;;;;;;4998016;28;20061;-59
2021/11/22 11:23:51;;;;;;;25.67;12.35;;;;;;;;;;5007919;28;20033;-58
2021/11/22 11:26:18;;;;;;;39.00;15.98;;;;;;;;;;4999106;28;20041;-57
2021/11/22 11:28:43;;;;;;;36.67;14.70;;;;;;;;;;4994955;28;20026;-58
2021/11/22 11:31:08;;;;;;;32.45;13.88;;;;;;;;;;5000865;28;20408;-58
2021/11/22 11:33:34;;;;;;;25.40;12.50;;;;;;;;;;5001839;28;20314;-57
2021/11/22 11:36:07;;;;;;;27.00;12.40;;;;;;;;;;5005515;28;20026;-58
2021/11/22 11:38:51;;;;;;;30.15;12.45;;;;;;;;;;5004281;28;20495;-58
2021/11/22 11:41:43;;;;;;;22.90;11.50;;;;;;;;;;5009609;28;20033;-58
2021/11/22 11:44:23;;;;;;;28.92;13.05;;;;;;;;;;5000800;28;20026;-59
2021/11/22 11:47:16;;;;;;;29.15;13.75;;;;;;;;;;4998352;28;20033;-59
2021/11/22 11:49:42;;;;;;;26.88;13.45;;;;;;;;;;4998825;28;20108;-59
2021/11/22 11:52:25;;;;;;;28.17;13.57;;;;;;;;;;4997231;28;20116;-59
2021/11/22 11:54:51;;;;;;;20.25;10.40;;;;;;;;;;4995025;28;20543;-57
2021/11/22 11:57:20;;;;;;;26.23;11.93;;;;;;;;;;5001287;28;20033;-59
2021/11/22 11:59:47;;;;;;;22.65;10.07;;;;;;;;;;5000420;28;20033;-58
2021/11/22 12:02:29;;;;;;;22.35;11.07;;;;;;;;;;5000807;28;20182;-58
2021/11/22 12:04:59;;;;;;;25.25;10.65;;;;;;;;;;5002374;28;20026;-59
2021/11/22 12:07:27;;;;;;;22.75;10.82;;;;;;;;;;5000282;28;20100;-59
2021/11/22 12:10:10;;;;;;;24.23;11.35;;;;;;;;;;5000348;28;20038;-58
2021/11/22 12:12:42;;;;;;;20.65;9.43;;;;;;;;;;4995339;28;20022;-58
2021/11/22 12:15:16;;;;;;;17.17;8.55;;;;;;;;;;5001501;28;20488;-58
2021/11/22 12:17:42;;;;;;;16.75;8.20;;;;;;;;;;5002130;28;20117;-58
2021/11/22 12:20:30;;;;;;;15.63;8.10;;;;;;;;;;5003770;28;20033;-58
2021/11/22 12:23:06;;;;;;;17.63;9.40;;;;;;;;;;5003017;28;20131;-58
2021/11/22 12:25:38;;;;;;;18.00;9.00;;;;;;;;;;5001630;28;20029;-58
2021/11/22 12:28:18;;;;;;;16.33;7.95;;;;;;;;;;4999363;28;20038;-58
2021/11/22 12:30:46;;;;;;;15.95;7.95;;;;;;;;;;5000022;28;20103;-60
2021/11/22 12:33:21;;;;;;;22.02;10.77;;;;;;;;;;5001838;28;20025;-59
2021/11/22 12:36:00;;;;;;;16.83;8.90;;;;;;;;;;5003739;28;20059;-58
2021/11/22 12:38:28;;;;;;;18.80;7.70;;;;;;;;;;4998418;28;20026;-59
2021/11/22 12:40:58;;;;;;;17.13;7.90;;;;;;;;;;5004433;28;20034;-59
2021/11/22 12:43:47;;;;;;;15.18;7.00;;;;;;;;;;5003704;28;20026;-59
2021/11/22 12:46:15;;;;;;;14.75;7.55;;;;;;;;;;4997336;28;20120;-59
2021/11/22 12:48:43;;;;;;;15.85;6.80;;;;;;;;;;4996553;28;20030;-59
2021/11/22 12:51:14;;;;;;;15.00;6.60;;;;;;;;;;5001516;28;20050;-58
2021/11/22 12:54:03;;;;;;;13.40;6.72;;;;;;;;;;5004172;28;20033;-59
2021/11/22 12:56:30;;;;;;;13.48;6.03;;;;;;;;;;5002444;28;20036;-58
2021/11/22 12:59:06;;;;;;;16.65;7.93;;;;;;;;;;5001542;28;20034;-58
2021/11/22 13:01:32;;;;;;;16.65;7.82;;;;;;;;;;5000209;28;20030;-58
2021/11/22 13:03:57;;;;;;;17.08;7.70;;;;;;;;;;5000995;28;20052;-57
2021/11/22 13:06:34;;;;;;;15.35;7.40;;;;;;;;;;4999228;28;20033;-58
2021/11/22 13:09:00;;;;;;;14.75;7.82;;;;;;;;;;4998043;28;20030;-58
2021/11/22 13:11:34;;;;;;;15.50;6.80;;;;;;;;;;5001574;28;20033;-58
2021/11/22 13:14:06;;;;;;;10.55;6.25;;;;;;;;;;5001186;28;20030;-58
2021/11/22 13:16:33;;;;;;;9.32;6.10;;;;;;;;;;4998257;28;20030;-58
2021/11/22 13:19:03;;;;;;;13.02;5.88;;;;;;;;;;5001895;28;20033;-58
2021/11/22 13:21:30;;;;;;;13.40;6.65;;;;;;;;;;5002037;28;20443;-58
2021/11/22 13:24:05;;;;;;;11.57;6.50;;;;;;;;;;4999099;28;20087;-58
2021/11/22 13:26:31;;;;;;;11.20;6.55;;;;;;;;;;4999842;28;20127;-58
2021/11/22 13:29:07;;;;;;;10.88;6.75;;;;;;;;;;5002233;28;20026;-59
2021/11/22 13:31:36;;;;;;;9.60;6.20;;;;;;;;;;4997030;28;20049;-58
2021/11/22 13:34:05;;;;;;;11.13;6.32;;;;;;;;;;4999897;28;20041;-57
2021/11/22 13:36:46;;;;;;;12.27;6.20;;;;;;;;;;4998540;28;20088;-58
2021/11/22 13:39:24;;;;;;;12.32;7.03;;;;;;;;;;4999720;28;20442;-58
2021/11/22 13:42:12;;;;;;;13.10;6.85;;;;;;;;;;4998992;28;20026;-58
2021/11/22 13:44:43;;;;;;;14.45;6.80;;;;;;;;;;5000677;28;20096;-58
2021/11/22 13:47:14;;;;;;;14.63;8.52;;;;;;;;;;4999833;28;20057;-57
2021/11/22 13:49:39;;;;;;;14.95;7.43;;;;;;;;;;4998277;28;20058;-58
2021/11/22 13:52:05;;;;;;;13.27;7.60;;;;;;;;;;4999685;28;20061;-58
2021/11/22 13:54:31;;;;;;;15.02;7.50;;;;;;;;;;5001429;28;20408;-57
2021/11/22 13:57:00;;;;;;;14.75;7.70;;;;;;;;;;4998861;28;20452;-58
2021/11/22 13:59:38;;;;;;;15.90;8.32;;;;;;;;;;4998688;28;20033;-58
2021/11/22 14:02:14;;;;;;;17.08;8.45;;;;;;;;;;5000312;28;20033;-57
2021/11/22 14:04:44;;;;;;;15.45;8.73;;;;;;;;;;5004980;28;20117;-58
2021/11/22 14:07:13;;;;;;;17.20;8.95;;;;;;;;;;5002091;28;20026;-58
2021/11/22 14:09:39;;;;;;;18.27;9.25;;;;;;;;;;5005929;28;20029;-57
2021/11/22 14:12:06;;;;;;;19.52;9.23;;;;;;;;;;5005966;28;20037;-57
2021/11/22 14:14:40;;;;;;;21.67;9.63;;;;;;;;;;5007139;28;20025;-58
2021/11/22 14:17:06;;;;;;;19.25;9.50;;;;;;;;;;5005403;28;20061;-59
2021/11/22 14:19:32;;;;;;;20.63;10.73;;;;;;;;;;5002409;28;20026;-58
2021/11/22 14:22:12;;;;;;;19.30;9.25;;;;;;;;;;5005486;28;20041;-58
2021/11/22 14:24:52;;;;;;;14.02;7.78;;;;;;;;;;5005088;28;20069;-59